William J. Weber — WDC6537 — position and weather

sailwx.info

Track history (hours):
 
Tides and Currents Weather Stations Pressure Air Temp Water Temp Dewpoint Dewpoint Depression Visibility Wind Speed Wind Dir Waves Ship Positions

William J. Weber

Owner: American Commercial Lines LLC, Jeffersonville, IN. More information available from US FCC via Universal Licensing System and Coast Guard Vessel Documentation Center.

Last reported at 2016-Apr-29 11:32 UTC. Time now 2016-Apr-29 13:56 UTC.
Position N 29°43' W 095°16'.

Length 23 m.

Type: Towing. MMSI: 367057640.

Date/timePositionNaut miles runAvg speedWind from/ knotsBaromVisibWave heightAir tempDewpointWater temp
2016-Apr-29 11:32N 29°43' W 095°16'0 0.0
2016-Apr-29 10:27N 29°43' W 095°16'0 0.0
2016-Apr-29 08:25N 29°43' W 095°16'0 0.0
2016-Apr-29 07:26N 29°43' W 095°16'0 0.0
2016-Apr-29 06:29N 29°43' W 095°16'0 0.0
2016-Apr-29 05:29N 29°43' W 095°16'1 0.1
2016-Apr-28 21:33N 29°43' W 095°15'7 6.6
2016-Apr-28 20:31N 29°44' W 095°07'2 0.2
2016-Apr-28 10:11N 29°45' W 095°06'1 2.3
2016-Apr-28 09:33N 29°45' W 095°04'5 5.5
2016-Apr-28 08:33N 29°42' W 094°59'7 6.5
2016-Apr-28 07:33N 29°36' W 094°56'7 6.8
2016-Apr-28 06:34N 29°30' W 094°52'8 4.1
2016-Apr-28 04:28N 29°24' W 094°46'18 5.4
2016-Apr-28 01:05N 29°33' W 094°28'18 5.1
2016-Apr-27 21:30N 29°41' W 094°09'6 6.1
2016-Apr-27 20:33N 29°45' W 094°04'6 6.2
2016-Apr-27 19:33N 29°49' W 093°59'0 0.0
2016-Apr-27 18:32N 29°49' W 093°59'0 0.2
2016-Apr-27 17:27N 29°49' W 093°59'3 3.3
2016-Apr-27 16:34N 29°51' W 093°57'6 6.0
2016-Apr-27 15:33N 29°56' W 093°52'0 0.0
2016-Apr-27 14:33N 29°56' W 093°52'7 0.2
2016-Apr-26 05:30N 30°01' W 093°59'57 4.3
2016-Apr-25 16:11N 29°24' W 094°49'4 4.9
2016-Apr-25 15:27N 29°27' W 094°51'6 6.2
2016-Apr-25 14:33N 29°32' W 094°54'18 0.6
2016-Apr-24 11:29N 29°46' W 095°06'2 2.4
2016-Apr-24 10:33N 29°45' W 095°04'5 5.1
2016-Apr-24 09:34N 29°42' W 094°60'6 6.5
2016-Apr-24 08:33N 29°36' W 094°57'7 6.9
2016-Apr-24 07:33N 29°30' W 094°52'55 3.1
2016-Apr-23 13:28N 30°01' W 093°59'0 0.0
2016-Apr-23 12:33N 30°01' W 093°59'14 0.6
2016-Apr-22 14:32N 29°47' W 094°02'11 5.6
2016-Apr-22 12:33N 29°41' W 094°12'20 4.9
2016-Apr-22 08:31N 29°30' W 094°32'16 3.2
2016-Apr-22 03:25N 29°26' W 094°50'7 8.1
2016-Apr-22 02:34N 29°32' W 094°54'8 7.8
2016-Apr-22 01:33N 29°39' W 094°58'8 7.0
2016-Apr-22 00:28N 29°45' W 095°04'1 0.1
2016-Apr-20 19:15N 29°45' W 095°06'1 0.8
2016-Apr-20 18:31N 29°46' W 095°05'0 0.0
2016-Apr-20 16:30N 29°46' W 095°05'2 2.0
2016-Apr-20 15:33N 29°45' W 095°04'4 4.1
2016-Apr-20 14:33N 29°42' W 095°00'6 6.1
2016-Apr-20 13:33N 29°36' W 094°57'7 7.2
2016-Apr-20 12:34N 29°30' W 094°53'  
Track history (hours):
 
Tides and Currents Weather Stations Pressure Air Temp Water Temp Dewpoint Dewpoint Depression Visibility Wind Speed Wind Dir Waves Ship Positions

William J. Weber

Owner: American Commercial Lines LLC, Jeffersonville, IN. More information available from US FCC via Universal Licensing System and Coast Guard Vessel Documentation Center.

Last reported at 2016-Apr-29 11:32 UTC. Time now 2016-Apr-29 13:56 UTC.
Position N 29°43' W 095°16'.

Length 23 m.

Type: Towing. MMSI: 367057640.

Date/timePositionNaut miles runAvg speedWind from/ knotsBaromVisibWave heightAir tempDewpointWater temp
2016-Apr-29 11:32N 29°43' W 095°16'0 0.0
2016-Apr-29 10:27N 29°43' W 095°16'0 0.0
2016-Apr-29 08:25N 29°43' W 095°16'0 0.0
2016-Apr-29 07:26N 29°43' W 095°16'0 0.0
2016-Apr-29 06:29N 29°43' W 095°16'0 0.0
2016-Apr-29 05:29N 29°43' W 095°16'1 0.1
2016-Apr-28 21:33N 29°43' W 095°15'7 6.6
2016-Apr-28 20:31N 29°44' W 095°07'2 0.2
2016-Apr-28 10:11N 29°45' W 095°06'1 2.3
2016-Apr-28 09:33N 29°45' W 095°04'5 5.5
2016-Apr-28 08:33N 29°42' W 094°59'7 6.5
2016-Apr-28 07:33N 29°36' W 094°56'7 6.8
2016-Apr-28 06:34N 29°30' W 094°52'8 4.1
2016-Apr-28 04:28N 29°24' W 094°46'18 5.4
2016-Apr-28 01:05N 29°33' W 094°28'18 5.1
2016-Apr-27 21:30N 29°41' W 094°09'6 6.1
2016-Apr-27 20:33N 29°45' W 094°04'6 6.2
2016-Apr-27 19:33N 29°49' W 093°59'0 0.0
2016-Apr-27 18:32N 29°49' W 093°59'0 0.2
2016-Apr-27 17:27N 29°49' W 093°59'3 3.3
2016-Apr-27 16:34N 29°51' W 093°57'6 6.0
2016-Apr-27 15:33N 29°56' W 093°52'0 0.0
2016-Apr-27 14:33N 29°56' W 093°52'7 0.2
2016-Apr-26 05:30N 30°01' W 093°59'57 4.3
2016-Apr-25 16:11N 29°24' W 094°49'4 4.9
2016-Apr-25 15:27N 29°27' W 094°51'6 6.2
2016-Apr-25 14:33N 29°32' W 094°54'18 0.6
2016-Apr-24 11:29N 29°46' W 095°06'2 2.4
2016-Apr-24 10:33N 29°45' W 095°04'5 5.1
2016-Apr-24 09:34N 29°42' W 094°60'6 6.5
2016-Apr-24 08:33N 29°36' W 094°57'7 6.9
2016-Apr-24 07:33N 29°30' W 094°52'55 3.1
2016-Apr-23 13:28N 30°01' W 093°59'0 0.0
2016-Apr-23 12:33N 30°01' W 093°59'14 0.6
2016-Apr-22 14:32N 29°47' W 094°02'11 5.6
2016-Apr-22 12:33N 29°41' W 094°12'20 4.9
2016-Apr-22 08:31N 29°30' W 094°32'16 3.2
2016-Apr-22 03:25N 29°26' W 094°50'7 8.1
2016-Apr-22 02:34N 29°32' W 094°54'8 7.8
2016-Apr-22 01:33N 29°39' W 094°58'8 7.0
2016-Apr-22 00:28N 29°45' W 095°04'1 0.1
2016-Apr-20 19:15N 29°45' W 095°06'1 0.8
2016-Apr-20 18:31N 29°46' W 095°05'0 0.0
2016-Apr-20 16:30N 29°46' W 095°05'2 2.0
2016-Apr-20 15:33N 29°45' W 095°04'4 4.1
2016-Apr-20 14:33N 29°42' W 095°00'6 6.1
2016-Apr-20 13:33N 29°36' W 094°57'7 7.2
2016-Apr-20 12:34N 29°30' W 094°53'  

Dump ship's entire track history